sensor_id;sensor_type;location;lat;lon;timestamp;P1;durP1;ratioP1;P2;durP2;ratioP2
80127;SDS011;69440;52.118;5.408;2023-06-14T00:02:05;6.20;;;2.38;;
80127;SDS011;69440;52.118;5.408;2023-06-14T00:04:35;4.03;;;2.17;;
80127;SDS011;69440;52.118;5.408;2023-06-14T00:07:02;6.28;;;2.65;;
80127;SDS011;69440;52.118;5.408;2023-06-14T00:09:29;4.47;;;2.40;;
80127;SDS011;69440;52.118;5.408;2023-06-14T00:11:55;4.97;;;2.53;;
80127;SDS011;69440;52.118;5.408;2023-06-14T00:14:22;3.42;;;2.03;;
80127;SDS011;69440;52.118;5.408;2023-06-14T00:16:48;5.10;;;2.40;;
80127;SDS011;69440;52.118;5.408;2023-06-14T00:19:15;6.45;;;2.30;;
80127;SDS011;69440;52.118;5.408;2023-06-14T00:21:42;8.07;;;2.72;;
80127;SDS011;69440;52.118;5.408;2023-06-14T00:24:09;5.72;;;2.03;;
80127;SDS011;69440;52.118;5.408;2023-06-14T00:26:36;6.47;;;2.75;;
80127;SDS011;69440;52.118;5.408;2023-06-14T00:29:02;5.35;;;2.03;;
80127;SDS011;69440;52.118;5.408;2023-06-14T00:31:29;7.03;;;2.55;;
80127;SDS011;69440;52.118;5.408;2023-06-14T00:33:55;4.68;;;2.55;;
80127;SDS011;69440;52.118;5.408;2023-06-14T00:36:22;3.70;;;1.98;;
80127;SDS011;69440;52.118;5.408;2023-06-14T00:38:48;6.65;;;2.20;;
80127;SDS011;69440;52.118;5.408;2023-06-14T00:41:14;5.10;;;2.95;;
80127;SDS011;69440;52.118;5.408;2023-06-14T00:43:41;3.40;;;2.30;;
80127;SDS011;69440;52.118;5.408;2023-06-14T00:46:07;6.82;;;2.30;;
80127;SDS011;69440;52.118;5.408;2023-06-14T00:48:34;5.15;;;2.30;;
80127;SDS011;69440;52.118;5.408;2023-06-14T00:51:03;5.78;;;2.90;;
80127;SDS011;69440;52.118;5.408;2023-06-14T00:53:30;6.20;;;2.40;;
80127;SDS011;69440;52.118;5.408;2023-06-14T00:56:00;6.57;;;2.10;;
80127;SDS011;69440;52.118;5.408;2023-06-14T00:58:26;4.15;;;2.25;;
80127;SDS011;69440;52.118;5.408;2023-06-14T01:00:53;5.57;;;2.00;;
80127;SDS011;69440;52.118;5.408;2023-06-14T01:03:20;4.18;;;2.40;;
80127;SDS011;69440;52.118;5.408;2023-06-14T01:05:50;6.93;;;2.13;;
80127;SDS011;69440;52.118;5.408;2023-06-14T01:08:31;3.95;;;2.40;;
80127;SDS011;69440;52.118;5.408;2023-06-14T01:11:13;5.18;;;2.33;;
80127;SDS011;69440;52.118;5.408;2023-06-14T01:13:45;5.60;;;2.10;;
80127;SDS011;69440;52.118;5.408;2023-06-14T01:16:12;5.13;;;2.15;;
80127;SDS011;69440;52.118;5.408;2023-06-14T01:18:40;5.25;;;2.40;;
80127;SDS011;69440;52.118;5.408;2023-06-14T01:21:19;4.57;;;2.00;;
80127;SDS011;69440;52.118;5.408;2023-06-14T01:23:55;5.60;;;2.38;;
80127;SDS011;69440;52.118;5.408;2023-06-14T01:26:23;4.15;;;2.40;;
80127;SDS011;69440;52.118;5.408;2023-06-14T01:28:50;6.28;;;2.20;;
80127;SDS011;69440;52.118;5.408;2023-06-14T01:31:21;6.45;;;2.22;;
80127;SDS011;69440;52.118;5.408;2023-06-14T01:33:49;6.50;;;2.28;;
80127;SDS011;69440;52.118;5.408;2023-06-14T01:36:18;5.90;;;2.08;;
80127;SDS011;69440;52.118;5.408;2023-06-14T01:38:46;4.53;;;2.53;;
80127;SDS011;69440;52.118;5.408;2023-06-14T01:41:16;6.55;;;2.00;;
80127;SDS011;69440;52.118;5.408;2023-06-14T01:43:44;4.03;;;2.15;;
80127;SDS011;69440;52.118;5.408;2023-06-14T01:46:13;7.57;;;1.98;;
80127;SDS011;69440;52.118;5.408;2023-06-14T01:48:41;4.10;;;1.90;;
80127;SDS011;69440;52.118;5.408;2023-06-14T01:51:08;3.75;;;2.00;;
80127;SDS011;69440;52.118;5.408;2023-06-14T01:53:35;5.10;;;2.10;;
80127;SDS011;69440;52.118;5.408;2023-06-14T01:56:02;6.80;;;2.33;;
80127;SDS011;69440;52.118;5.408;2023-06-14T01:58:29;4.25;;;2.05;;
80127;SDS011;69440;52.118;5.408;2023-06-14T02:00:55;5.15;;;2.30;;
80127;SDS011;69440;52.118;5.408;2023-06-14T02:03:23;9.25;;;2.30;;
80127;SDS011;69440;52.118;5.408;2023-06-14T02:05:50;9.63;;;2.80;;
80127;SDS011;69440;52.118;5.408;2023-06-14T02:08:16;4.32;;;2.33;;
80127;SDS011;69440;52.118;5.408;2023-06-14T02:10:43;5.78;;;2.17;;
80127;SDS011;69440;52.118;5.408;2023-06-14T02:13:09;6.10;;;2.17;;
80127;SDS011;69440;52.118;5.408;2023-06-14T02:15:36;3.63;;;2.38;;
80127;SDS011;69440;52.118;5.408;2023-06-14T02:18:03;5.80;;;2.20;;
80127;SDS011;69440;52.118;5.408;2023-06-14T02:20:30;5.07;;;2.40;;
80127;SDS011;69440;52.118;5.408;2023-06-14T02:22:56;2.95;;;2.00;;
80127;SDS011;69440;52.118;5.408;2023-06-14T02:25:23;5.00;;;2.33;;
80127;SDS011;69440;52.118;5.408;2023-06-14T02:27:50;7.35;;;2.30;;
80127;SDS011;69440;52.118;5.408;2023-06-14T02:30:16;6.82;;;2.42;;
80127;SDS011;69440;52.118;5.408;2023-06-14T02:32:43;6.32;;;2.58;;
80127;SDS011;69440;52.118;5.408;2023-06-14T02:35:10;4.60;;;2.33;;
80127;SDS011;69440;52.118;5.408;2023-06-14T02:37:36;9.93;;;3.03;;
80127;SDS011;69440;52.118;5.408;2023-06-14T02:40:03;3.38;;;2.20;;
80127;SDS011;69440;52.118;5.408;2023-06-14T02:42:30;5.82;;;2.17;;
80127;SDS011;69440;52.118;5.408;2023-06-14T02:44:57;6.53;;;2.20;;
80127;SDS011;69440;52.118;5.408;2023-06-14T02:47:23;3.78;;;2.40;;
80127;SDS011;69440;52.118;5.408;2023-06-14T02:49:50;6.82;;;2.30;;
80127;SDS011;69440;52.118;5.408;2023-06-14T02:52:17;5.10;;;2.22;;
80127;SDS011;69440;52.118;5.408;2023-06-14T02:54:43;4.32;;;2.35;;
80127;SDS011;69440;52.118;5.408;2023-06-14T02:57:10;3.17;;;1.88;;
80127;SDS011;69440;52.118;5.408;2023-06-14T02:59:37;5.68;;;2.10;;
80127;SDS011;69440;52.118;5.408;2023-06-14T03:02:03;4.45;;;1.90;;
80127;SDS011;69440;52.118;5.408;2023-06-14T03:04:31;8.20;;;3.10;;
80127;SDS011;69440;52.118;5.408;2023-06-14T03:07:03;7.15;;;2.42;;
80127;SDS011;69440;52.118;5.408;2023-06-14T03:09:35;7.15;;;2.20;;
80127;SDS011;69440;52.118;5.408;2023-06-14T03:12:06;5.30;;;2.15;;
80127;SDS011;69440;52.118;5.408;2023-06-14T03:14:33;7.07;;;2.80;;
80127;SDS011;69440;52.118;5.408;2023-06-14T03:16:59;6.07;;;2.50;;
80127;SDS011;69440;52.118;5.408;2023-06-14T03:19:26;4.38;;;2.50;;
80127;SDS011;69440;52.118;5.408;2023-06-14T03:21:53;3.40;;;1.95;;
80127;SDS011;69440;52.118;5.408;2023-06-14T03:24:23;12.80;;;3.10;;
80127;SDS011;69440;52.118;5.408;2023-06-14T03:26:51;6.07;;;2.28;;
80127;SDS011;69440;52.118;5.408;2023-06-14T03:29:17;4.90;;;2.35;;
80127;SDS011;69440;52.118;5.408;2023-06-14T03:32:00;5.55;;;2.35;;
80127;SDS011;69440;52.118;5.408;2023-06-14T03:34:27;5.30;;;2.38;;
80127;SDS011;69440;52.118;5.408;2023-06-14T03:36:54;4.78;;;2.30;;
80127;SDS011;69440;52.118;5.408;2023-06-14T03:39:20;7.82;;;2.90;;
80127;SDS011;69440;52.118;5.408;2023-06-14T03:41:47;3.92;;;2.15;;
80127;SDS011;69440;52.118;5.408;2023-06-14T03:44:15;4.57;;;2.78;;
80127;SDS011;69440;52.118;5.408;2023-06-14T03:46:44;6.72;;;2.45;;
80127;SDS011;69440;52.118;5.408;2023-06-14T03:49:11;11.35;;;3.15;;
80127;SDS011;69440;52.118;5.408;2023-06-14T03:51:38;7.88;;;3.05;;
80127;SDS011;69440;52.118;5.408;2023-06-14T03:54:06;6.65;;;2.10;;
80127;SDS011;69440;52.118;5.408;2023-06-14T03:56:53;6.43;;;2.70;;
80127;SDS011;69440;52.118;5.408;2023-06-14T03:59:19;5.38;;;2.30;;
80127;SDS011;69440;52.118;5.408;2023-06-14T04:01:46;7.13;;;2.00;;
80127;SDS011;69440;52.118;5.408;2023-06-14T04:04:13;6.13;;;2.45;;
80127;SDS011;69440;52.118;5.408;2023-06-14T04:06:39;5.00;;;2.65;;
80127;SDS011;69440;52.118;5.408;2023-06-14T04:09:08;3.88;;;2.10;;
80127;SDS011;69440;52.118;5.408;2023-06-14T04:11:34;4.72;;;2.10;;
80127;SDS011;69440;52.118;5.408;2023-06-14T04:14:01;5.47;;;2.08;;
80127;SDS011;69440;52.118;5.408;2023-06-14T04:16:28;3.90;;;2.25;;
80127;SDS011;69440;52.118;5.408;2023-06-14T04:18:55;5.82;;;2.42;;
80127;SDS011;69440;52.118;5.408;2023-06-14T04:21:22;6.15;;;2.40;;
80127;SDS011;69440;52.118;5.408;2023-06-14T04:23:49;4.63;;;2.38;;
80127;SDS011;69440;52.118;5.408;2023-06-14T04:26:19;4.30;;;2.17;;
80127;SDS011;69440;52.118;5.408;2023-06-14T04:28:46;5.40;;;2.10;;
80127;SDS011;69440;52.118;5.408;2023-06-14T04:31:13;6.18;;;2.50;;
80127;SDS011;69440;52.118;5.408;2023-06-14T04:33:39;5.32;;;2.28;;
80127;SDS011;69440;52.118;5.408;2023-06-14T04:36:10;4.47;;;2.00;;
80127;SDS011;69440;52.118;5.408;2023-06-14T04:38:38;4.07;;;2.33;;
80127;SDS011;69440;52.118;5.408;2023-06-14T04:41:05;5.20;;;2.08;;
80127;SDS011;69440;52.118;5.408;2023-06-14T04:43:32;5.72;;;3.15;;
80127;SDS011;69440;52.118;5.408;2023-06-14T04:46:04;6.82;;;2.88;;
80127;SDS011;69440;52.118;5.408;2023-06-14T04:48:32;4.80;;;2.53;;
80127;SDS011;69440;52.118;5.408;2023-06-14T04:50:58;4.07;;;2.30;;
80127;SDS011;69440;52.118;5.408;2023-06-14T04:53:25;4.55;;;2.30;;
80127;SDS011;69440;52.118;5.408;2023-06-14T04:55:55;5.43;;;2.47;;
80127;SDS011;69440;52.118;5.408;2023-06-14T04:58:21;5.57;;;2.47;;
80127;SDS011;69440;52.118;5.408;2023-06-14T05:00:47;4.80;;;2.30;;
80127;SDS011;69440;52.118;5.408;2023-06-14T05:03:14;5.88;;;2.42;;
80127;SDS011;69440;52.118;5.408;2023-06-14T05:05:41;3.80;;;2.08;;
80127;SDS011;69440;52.118;5.408;2023-06-14T05:08:07;6.95;;;2.30;;
80127;SDS011;69440;52.118;5.408;2023-06-14T05:10:35;4.93;;;2.60;;
80127;SDS011;69440;52.118;5.408;2023-06-14T05:13:02;6.47;;;2.42;;
80127;SDS011;69440;52.118;5.408;2023-06-14T05:15:29;6.38;;;2.30;;
80127;SDS011;69440;52.118;5.408;2023-06-14T05:17:55;8.75;;;2.30;;
80127;SDS011;69440;52.118;5.408;2023-06-14T05:20:23;6.10;;;2.25;;
80127;SDS011;69440;52.118;5.408;2023-06-14T05:22:53;9.75;;;2.90;;
80127;SDS011;69440;52.118;5.408;2023-06-14T05:25:20;4.78;;;2.30;;
80127;SDS011;69440;52.118;5.408;2023-06-14T05:27:47;6.20;;;2.40;;
80127;SDS011;69440;52.118;5.408;2023-06-14T05:30:14;6.35;;;2.35;;
80127;SDS011;69440;52.118;5.408;2023-06-14T05:32:41;4.28;;;2.40;;
80127;SDS011;69440;52.118;5.408;2023-06-14T05:35:08;7.03;;;3.60;;
80127;SDS011;69440;52.118;5.408;2023-06-14T05:37:34;3.97;;;2.38;;
80127;SDS011;69440;52.118;5.408;2023-06-14T05:40:01;4.43;;;2.28;;
80127;SDS011;69440;52.118;5.408;2023-06-14T05:42:31;5.43;;;2.28;;
80127;SDS011;69440;52.118;5.408;2023-06-14T05:44:58;5.72;;;2.22;;
80127;SDS011;69440;52.118;5.408;2023-06-14T05:47:24;5.25;;;2.35;;
80127;SDS011;69440;52.118;5.408;2023-06-14T05:49:51;7.00;;;2.20;;
80127;SDS011;69440;52.118;5.408;2023-06-14T05:52:18;5.78;;;2.60;;
80127;SDS011;69440;52.118;5.408;2023-06-14T05:54:44;4.25;;;2.38;;
80127;SDS011;69440;52.118;5.408;2023-06-14T05:57:11;5.63;;;2.40;;
80127;SDS011;69440;52.118;5.408;2023-06-14T05:59:38;6.03;;;2.70;;
80127;SDS011;69440;52.118;5.408;2023-06-14T06:02:05;4.00;;;2.15;;
80127;SDS011;69440;52.118;5.408;2023-06-14T06:04:31;4.07;;;2.08;;
80127;SDS011;69440;52.118;5.408;2023-06-14T06:06:58;7.13;;;2.20;;
80127;SDS011;69440;52.118;5.408;2023-06-14T06:09:24;5.15;;;2.33;;
80127;SDS011;69440;52.118;5.408;2023-06-14T06:11:51;8.50;;;3.05;;
80127;SDS011;69440;52.118;5.408;2023-06-14T06:14:19;3.83;;;2.05;;
80127;SDS011;69440;52.118;5.408;2023-06-14T06:16:46;3.65;;;2.50;;
80127;SDS011;69440;52.118;5.408;2023-06-14T06:19:12;7.88;;;2.22;;
80127;SDS011;69440;52.118;5.408;2023-06-14T06:21:39;3.63;;;2.25;;
80127;SDS011;69440;52.118;5.408;2023-06-14T06:24:06;5.47;;;2.13;;
80127;SDS011;69440;52.118;5.408;2023-06-14T06:26:32;6.45;;;2.30;;
80127;SDS011;69440;52.118;5.408;2023-06-14T06:28:59;3.70;;;2.00;;
80127;SDS011;69440;52.118;5.408;2023-06-14T06:31:25;4.35;;;2.40;;
80127;SDS011;69440;52.118;5.408;2023-06-14T06:33:54;3.78;;;2.42;;
80127;SDS011;69440;52.118;5.408;2023-06-14T06:36:21;9.75;;;2.45;;
80127;SDS011;69440;52.118;5.408;2023-06-14T06:38:47;3.70;;;1.95;;
80127;SDS011;69440;52.118;5.408;2023-06-14T06:41:14;5.07;;;2.30;;
80127;SDS011;69440;52.118;5.408;2023-06-14T06:43:40;6.25;;;2.42;;
80127;SDS011;69440;52.118;5.408;2023-06-14T06:46:07;5.32;;;2.40;;
80127;SDS011;69440;52.118;5.408;2023-06-14T06:48:33;4.35;;;2.00;;
80127;SDS011;69440;52.118;5.408;2023-06-14T06:51:00;4.18;;;2.22;;
80127;SDS011;69440;52.118;5.408;2023-06-14T06:53:27;4.47;;;2.10;;
80127;SDS011;69440;52.118;5.408;2023-06-14T06:56:05;4.13;;;2.25;;
80127;SDS011;69440;52.118;5.408;2023-06-14T06:58:31;3.80;;;2.22;;
80127;SDS011;69440;52.118;5.408;2023-06-14T07:00:58;3.88;;;2.05;;
80127;SDS011;69440;52.118;5.408;2023-06-14T07:03:24;4.63;;;2.33;;
80127;SDS011;69440;52.118;5.408;2023-06-14T07:05:51;5.25;;;2.40;;
80127;SDS011;69440;52.118;5.408;2023-06-14T07:08:17;9.93;;;4.75;;
80127;SDS011;69440;52.118;5.408;2023-06-14T07:10:44;9.63;;;2.75;;
80127;SDS011;69440;52.118;5.408;2023-06-14T07:13:10;8.98;;;2.67;;
80127;SDS011;69440;52.118;5.408;2023-06-14T07:15:37;5.40;;;2.22;;
80127;SDS011;69440;52.118;5.408;2023-06-14T07:18:04;6.70;;;1.95;;
80127;SDS011;69440;52.118;5.408;2023-06-14T07:20:33;6.97;;;2.33;;
80127;SDS011;69440;52.118;5.408;2023-06-14T07:22:59;7.80;;;2.40;;
80127;SDS011;69440;52.118;5.408;2023-06-14T07:25:26;3.25;;;2.30;;
80127;SDS011;69440;52.118;5.408;2023-06-14T07:27:52;4.38;;;2.45;;
80127;SDS011;69440;52.118;5.408;2023-06-14T07:30:19;4.15;;;1.85;;
80127;SDS011;69440;52.118;5.408;2023-06-14T07:32:45;5.57;;;1.85;;
80127;SDS011;69440;52.118;5.408;2023-06-14T07:35:12;4.63;;;1.90;;
80127;SDS011;69440;52.118;5.408;2023-06-14T07:37:39;4.15;;;1.67;;
80127;SDS011;69440;52.118;5.408;2023-06-14T07:40:06;6.07;;;2.72;;
80127;SDS011;69440;52.118;5.408;2023-06-14T07:42:34;6.57;;;2.05;;
80127;SDS011;69440;52.118;5.408;2023-06-14T07:45:04;5.95;;;2.03;;
80127;SDS011;69440;52.118;5.408;2023-06-14T07:47:32;4.80;;;2.13;;
80127;SDS011;69440;52.118;5.408;2023-06-14T07:49:59;4.35;;;1.98;;
80127;SDS011;69440;52.118;5.408;2023-06-14T07:52:25;2.60;;;1.80;;
80127;SDS011;69440;52.118;5.408;2023-06-14T07:54:52;4.25;;;1.63;;
80127;SDS011;69440;52.118;5.408;2023-06-14T07:57:18;5.65;;;1.85;;
80127;SDS011;69440;52.118;5.408;2023-06-14T07:59:46;3.58;;;1.52;;
80127;SDS011;69440;52.118;5.408;2023-06-14T08:02:12;5.22;;;1.70;;
80127;SDS011;69440;52.118;5.408;2023-06-14T08:04:39;3.60;;;2.22;;
80127;SDS011;69440;52.118;5.408;2023-06-14T08:07:06;3.67;;;2.00;;
80127;SDS011;69440;52.118;5.408;2023-06-14T08:09:33;3.97;;;1.80;;
80127;SDS011;69440;52.118;5.408;2023-06-14T08:12:00;5.22;;;1.50;;
80127;SDS011;69440;52.118;5.408;2023-06-14T08:14:27;3.83;;;1.70;;
80127;SDS011;69440;52.118;5.408;2023-06-14T08:16:55;4.57;;;1.58;;
80127;SDS011;69440;52.118;5.408;2023-06-14T08:19:21;3.45;;;1.50;;
80127;SDS011;69440;52.118;5.408;2023-06-14T08:21:48;4.97;;;1.88;;
80127;SDS011;69440;52.118;5.408;2023-06-14T08:24:14;5.00;;;1.58;;
80127;SDS011;69440;52.118;5.408;2023-06-14T08:26:41;4.13;;;1.77;;
80127;SDS011;69440;52.118;5.408;2023-06-14T08:29:07;6.43;;;2.25;;
80127;SDS011;69440;52.118;5.408;2023-06-14T08:31:34;3.72;;;1.70;;
80127;SDS011;69440;52.118;5.408;2023-06-14T08:34:01;2.30;;;1.50;;
80127;SDS011;69440;52.118;5.408;2023-06-14T08:36:30;3.15;;;1.50;;
80127;SDS011;69440;52.118;5.408;2023-06-14T08:38:56;2.65;;;1.30;;
80127;SDS011;69440;52.118;5.408;2023-06-14T08:41:23;2.78;;;1.50;;
80127;SDS011;69440;52.118;5.408;2023-06-14T08:43:53;3.72;;;1.60;;
80127;SDS011;69440;52.118;5.408;2023-06-14T08:46:19;1.98;;;1.23;;
80127;SDS011;69440;52.118;5.408;2023-06-14T08:48:46;4.88;;;1.30;;
80127;SDS011;69440;52.118;5.408;2023-06-14T08:51:17;5.35;;;1.60;;
80127;SDS011;69440;52.118;5.408;2023-06-14T08:53:45;2.63;;;1.65;;
80127;SDS011;69440;52.118;5.408;2023-06-14T08:56:14;8.55;;;2.05;;
80127;SDS011;69440;52.118;5.408;2023-06-14T08:58:42;1.92;;;1.40;;
80127;SDS011;69440;52.118;5.408;2023-06-14T09:01:11;2.50;;;1.40;;
80127;SDS011;69440;52.118;5.408;2023-06-14T09:03:43;2.63;;;1.63;;
80127;SDS011;69440;52.118;5.408;2023-06-14T09:06:11;1.77;;;1.27;;
80127;SDS011;69440;52.118;5.408;2023-06-14T09:08:40;2.17;;;1.20;;
80127;SDS011;69440;52.118;5.408;2023-06-14T09:11:10;2.65;;;1.35;;
80127;SDS011;69440;52.118;5.408;2023-06-14T09:13:39;1.77;;;1.17;;
80127;SDS011;69440;52.118;5.408;2023-06-14T09:16:06;3.03;;;1.25;;
80127;SDS011;69440;52.118;5.408;2023-06-14T09:21:16;2.35;;;1.38;;
80127;SDS011;69440;52.118;5.408;2023-06-14T09:23:44;3.00;;;1.45;;
80127;SDS011;69440;52.118;5.408;2023-06-14T09:26:15;2.70;;;1.30;;
80127;SDS011;69440;52.118;5.408;2023-06-14T09:28:43;2.47;;;1.45;;
80127;SDS011;69440;52.118;5.408;2023-06-14T09:31:15;2.10;;;1.20;;
80127;SDS011;69440;52.118;5.408;2023-06-14T09:33:45;2.25;;;1.30;;
80127;SDS011;69440;52.118;5.408;2023-06-14T09:36:21;2.55;;;1.35;;
80127;SDS011;69440;52.118;5.408;2023-06-14T09:38:55;1.80;;;1.20;;
80127;SDS011;69440;52.118;5.408;2023-06-14T09:41:32;2.47;;;1.15;;
80127;SDS011;69440;52.118;5.408;2023-06-14T09:44:03;2.40;;;1.17;;
80127;SDS011;69440;52.118;5.408;2023-06-14T09:46:36;2.15;;;1.10;;
80127;SDS011;69440;52.118;5.408;2023-06-14T09:49:04;4.25;;;1.33;;
80127;SDS011;69440;52.118;5.408;2023-06-14T09:51:32;3.30;;;1.38;;
80127;SDS011;69440;52.118;5.408;2023-06-14T09:54:00;4.88;;;1.38;;
80127;SDS011;69440;52.118;5.408;2023-06-14T09:56:31;2.50;;;1.40;;
80127;SDS011;69440;52.118;5.408;2023-06-14T09:59:09;2.97;;;1.50;;
80127;SDS011;69440;52.118;5.408;2023-06-14T10:01:42;2.53;;;1.40;;
80127;SDS011;69440;52.118;5.408;2023-06-14T10:04:09;3.28;;;1.30;;
80127;SDS011;69440;52.118;5.408;2023-06-14T10:06:39;2.70;;;1.27;;
80127;SDS011;69440;52.118;5.408;2023-06-14T10:09:07;3.78;;;1.30;;
80127;SDS011;69440;52.118;5.408;2023-06-14T10:11:35;3.97;;;1.35;;
80127;SDS011;69440;52.118;5.408;2023-06-14T10:14:04;3.55;;;1.40;;
80127;SDS011;69440;52.118;5.408;2023-06-14T10:16:36;2.40;;;1.40;;
80127;SDS011;69440;52.118;5.408;2023-06-14T10:19:22;2.08;;;1.20;;
80127;SDS011;69440;52.118;5.408;2023-06-14T10:24:53;7.65;;;1.50;;
80127;SDS011;69440;52.118;5.408;2023-06-14T10:27:20;2.13;;;1.08;;
80127;SDS011;69440;52.118;5.408;2023-06-14T10:32:20;3.72;;;1.33;;
80127;SDS011;69440;52.118;5.408;2023-06-14T10:34:53;3.47;;;1.30;;
80127;SDS011;69440;52.118;5.408;2023-06-14T10:37:26;2.25;;;1.27;;
80127;SDS011;69440;52.118;5.408;2023-06-14T10:39:53;2.83;;;1.63;;
80127;SDS011;69440;52.118;5.408;2023-06-14T10:42:20;4.45;;;1.45;;
80127;SDS011;69440;52.118;5.408;2023-06-14T10:44:52;2.28;;;1.50;;
80127;SDS011;69440;52.118;5.408;2023-06-14T10:47:26;3.15;;;1.58;;
80127;SDS011;69440;52.118;5.408;2023-06-14T10:52:32;4.03;;;1.20;;
80127;SDS011;69440;52.118;5.408;2023-06-14T10:55:34;2.55;;;1.30;;
80127;SDS011;69440;52.118;5.408;2023-06-14T10:58:00;5.40;;;1.75;;
80127;SDS011;69440;52.118;5.408;2023-06-14T11:00:28;2.13;;;1.20;;
80127;SDS011;69440;52.118;5.408;2023-06-14T11:05:57;2.40;;;1.52;;
80127;SDS011;69440;52.118;5.408;2023-06-14T11:08:47;3.75;;;1.40;;
80127;SDS011;69440;52.118;5.408;2023-06-14T11:11:32;3.70;;;1.40;;
80127;SDS011;69440;52.118;5.408;2023-06-14T11:14:02;3.60;;;1.00;;
80127;SDS011;69440;52.118;5.408;2023-06-14T11:16:29;2.30;;;1.40;;
80127;SDS011;69440;52.118;5.408;2023-06-14T11:18:59;3.42;;;1.20;;
80127;SDS011;69440;52.118;5.408;2023-06-14T11:21:26;2.88;;;1.38;;
80127;SDS011;69440;52.118;5.408;2023-06-14T11:23:57;4.47;;;1.67;;
80127;SDS011;69440;52.118;5.408;2023-06-14T11:26:32;5.05;;;1.83;;
80127;SDS011;69440;52.118;5.408;2023-06-14T11:29:00;3.17;;;1.50;;
80127;SDS011;69440;52.118;5.408;2023-06-14T11:31:28;2.15;;;1.10;;
80127;SDS011;69440;52.118;5.408;2023-06-14T11:33:56;2.67;;;1.33;;
80127;SDS011;69440;52.118;5.408;2023-06-14T11:36:31;3.13;;;1.52;;
80127;SDS011;69440;52.118;5.408;2023-06-14T11:39:03;2.00;;;1.50;;
80127;SDS011;69440;52.118;5.408;2023-06-14T11:44:08;4.05;;;1.60;;
80127;SDS011;69440;52.118;5.408;2023-06-14T11:46:36;4.07;;;1.55;;
80127;SDS011;69440;52.118;5.408;2023-06-14T11:49:03;3.17;;;1.42;;
80127;SDS011;69440;52.118;5.408;2023-06-14T11:51:31;2.15;;;1.40;;
80127;SDS011;69440;52.118;5.408;2023-06-14T11:54:01;2.60;;;1.60;;
80127;SDS011;69440;52.118;5.408;2023-06-14T11:56:29;3.33;;;1.60;;
80127;SDS011;69440;52.118;5.408;2023-06-14T11:58:58;2.15;;;1.48;;
80127;SDS011;69440;52.118;5.408;2023-06-14T12:01:25;3.28;;;1.40;;
80127;SDS011;69440;52.118;5.408;2023-06-14T12:03:53;2.85;;;1.55;;
80127;SDS011;69440;52.118;5.408;2023-06-14T12:06:29;4.32;;;1.40;;
80127;SDS011;69440;52.118;5.408;2023-06-14T12:09:06;2.45;;;1.45;;
80127;SDS011;69440;52.118;5.408;2023-06-14T12:11:38;2.97;;;1.35;;
80127;SDS011;69440;52.118;5.408;2023-06-14T12:14:05;4.55;;;1.35;;
80127;SDS011;69440;52.118;5.408;2023-06-14T12:16:33;2.70;;;1.40;;
80127;SDS011;69440;52.118;5.408;2023-06-14T12:19:35;3.92;;;1.45;;
80127;SDS011;69440;52.118;5.408;2023-06-14T12:21:54;2.20;;;1.35;;
80127;SDS011;69440;52.118;5.408;2023-06-14T12:24:20;3.55;;;1.58;;
80127;SDS011;69440;52.118;5.408;2023-06-14T12:26:47;2.13;;;1.45;;
80127;SDS011;69440;52.118;5.408;2023-06-14T12:29:13;2.75;;;1.50;;
80127;SDS011;69440;52.118;5.408;2023-06-14T12:31:40;2.95;;;1.38;;
80127;SDS011;69440;52.118;5.408;2023-06-14T12:34:07;4.07;;;1.50;;
80127;SDS011;69440;52.118;5.408;2023-06-14T12:36:33;1.85;;;1.10;;
80127;SDS011;69440;52.118;5.408;2023-06-14T12:39:01;3.03;;;1.50;;
80127;SDS011;69440;52.118;5.408;2023-06-14T12:41:28;3.55;;;1.40;;
80127;SDS011;69440;52.118;5.408;2023-06-14T12:43:55;2.78;;;1.58;;
80127;SDS011;69440;52.118;5.408;2023-06-14T12:46:21;3.33;;;1.50;;
80127;SDS011;69440;52.118;5.408;2023-06-14T12:48:48;2.28;;;1.60;;
80127;SDS011;69440;52.118;5.408;2023-06-14T12:51:14;4.25;;;1.40;;
80127;SDS011;69440;52.118;5.408;2023-06-14T12:53:41;2.10;;;1.40;;
80127;SDS011;69440;52.118;5.408;2023-06-14T12:56:07;2.58;;;1.20;;
80127;SDS011;69440;52.118;5.408;2023-06-14T12:58:34;2.97;;;1.10;;
80127;SDS011;69440;52.118;5.408;2023-06-14T13:01:00;5.63;;;1.42;;
80127;SDS011;69440;52.118;5.408;2023-06-14T13:03:27;2.20;;;1.40;;
80127;SDS011;69440;52.118;5.408;2023-06-14T13:05:53;1.90;;;1.30;;
80127;SDS011;69440;52.118;5.408;2023-06-14T13:08:20;4.40;;;1.38;;
80127;SDS011;69440;52.118;5.408;2023-06-14T13:10:50;3.33;;;1.40;;
80127;SDS011;69440;52.118;5.408;2023-06-14T13:13:16;2.92;;;1.30;;
80127;SDS011;69440;52.118;5.408;2023-06-14T13:15:43;2.15;;;1.30;;
80127;SDS011;69440;52.118;5.408;2023-06-14T13:18:12;4.18;;;1.70;;
80127;SDS011;69440;52.118;5.408;2023-06-14T13:20:42;3.03;;;1.60;;
80127;SDS011;69440;52.118;5.408;2023-06-14T13:23:08;4.20;;;1.33;;
80127;SDS011;69440;52.118;5.408;2023-06-14T13:25:36;2.83;;;1.73;;
80127;SDS011;69440;52.118;5.408;2023-06-14T13:28:03;2.20;;;1.50;;
80127;SDS011;69440;52.118;5.408;2023-06-14T13:30:31;3.13;;;1.27;;
80127;SDS011;69440;52.118;5.408;2023-06-14T13:32:58;3.15;;;1.50;;
80127;SDS011;69440;52.118;5.408;2023-06-14T13:35:26;4.65;;;1.63;;
80127;SDS011;69440;52.118;5.408;2023-06-14T13:37:52;2.50;;;1.50;;
80127;SDS011;69440;52.118;5.408;2023-06-14T13:40:19;2.45;;;1.30;;
80127;SDS011;69440;52.118;5.408;2023-06-14T13:42:46;2.00;;;1.20;;
80127;SDS011;69440;52.118;5.408;2023-06-14T13:45:13;3.40;;;1.60;;
80127;SDS011;69440;52.118;5.408;2023-06-14T13:47:39;3.80;;;1.40;;
80127;SDS011;69440;52.118;5.408;2023-06-14T13:50:06;2.28;;;1.55;;
80127;SDS011;69440;52.118;5.408;2023-06-14T13:52:33;1.85;;;1.33;;
80127;SDS011;69440;52.118;5.408;2023-06-14T13:54:59;3.35;;;1.60;;
80127;SDS011;69440;52.118;5.408;2023-06-14T13:57:26;5.13;;;1.50;;
80127;SDS011;69440;52.118;5.408;2023-06-14T13:59:53;6.35;;;1.67;;
80127;SDS011;69440;52.118;5.408;2023-06-14T14:02:21;2.50;;;1.30;;
80127;SDS011;69440;52.118;5.408;2023-06-14T14:04:48;2.38;;;1.40;;
80127;SDS011;69440;52.118;5.408;2023-06-14T14:07:18;4.30;;;1.30;;
80127;SDS011;69440;52.118;5.408;2023-06-14T14:09:46;3.42;;;1.58;;
80127;SDS011;69440;52.118;5.408;2023-06-14T14:12:16;1.97;;;1.53;;
80127;SDS011;69440;52.118;5.408;2023-06-14T14:14:44;3.88;;;1.40;;
80127;SDS011;69440;52.118;5.408;2023-06-14T14:17:11;1.90;;;1.33;;
80127;SDS011;69440;52.118;5.408;2023-06-14T14:19:37;3.85;;;1.50;;
80127;SDS011;69440;52.118;5.408;2023-06-14T14:22:04;3.50;;;1.30;;
80127;SDS011;69440;52.118;5.408;2023-06-14T14:24:30;2.72;;;1.40;;
80127;SDS011;69440;52.118;5.408;2023-06-14T14:26:57;1.92;;;1.30;;
80127;SDS011;69440;52.118;5.408;2023-06-14T14:29:26;2.72;;;1.60;;
80127;SDS011;69440;52.118;5.408;2023-06-14T14:31:55;2.58;;;1.58;;
80127;SDS011;69440;52.118;5.408;2023-06-14T14:34:24;1.85;;;1.20;;
80127;SDS011;69440;52.118;5.408;2023-06-14T14:36:50;5.85;;;1.65;;
80127;SDS011;69440;52.118;5.408;2023-06-14T14:39:17;2.33;;;1.20;;
80127;SDS011;69440;52.118;5.408;2023-06-14T14:41:43;2.70;;;1.30;;
80127;SDS011;69440;52.118;5.408;2023-06-14T14:44:10;3.70;;;1.40;;
80127;SDS011;69440;52.118;5.408;2023-06-14T14:46:36;2.83;;;1.40;;
80127;SDS011;69440;52.118;5.408;2023-06-14T14:49:04;3.88;;;1.20;;
80127;SDS011;69440;52.118;5.408;2023-06-14T14:51:30;2.83;;;2.10;;
80127;SDS011;69440;52.118;5.408;2023-06-14T14:53:57;3.22;;;1.27;;
80127;SDS011;69440;52.118;5.408;2023-06-14T14:56:23;3.30;;;1.30;;
80127;SDS011;69440;52.118;5.408;2023-06-14T14:58:50;2.47;;;1.20;;
80127;SDS011;69440;52.118;5.408;2023-06-14T15:01:17;4.55;;;1.48;;
80127;SDS011;69440;52.118;5.408;2023-06-14T15:03:44;2.50;;;1.20;;
80127;SDS011;69440;52.118;5.408;2023-06-14T15:06:25;2.25;;;1.00;;
80127;SDS011;69440;52.118;5.408;2023-06-14T15:08:51;2.28;;;1.15;;
80127;SDS011;69440;52.118;5.408;2023-06-14T15:11:18;3.05;;;1.25;;